createdAt,value
2018-12-17T00:00:08.425Z,88.50
2018-12-17T00:00:46.040Z,88.62
2018-12-17T00:01:23.151Z,87.41
2018-12-17T00:02:03.223Z,88.61
2018-12-17T00:02:41.348Z,87.32
2018-12-17T00:03:18.925Z,88.23
2018-12-17T00:03:59.698Z,87.60
2018-12-17T00:04:38.672Z,87.85
2018-12-17T00:05:16.906Z,88.73
2018-12-17T00:06:00.118Z,87.80
2018-12-17T00:06:37.342Z,87.66
2018-12-17T00:07:14.750Z,87.49
2018-12-17T00:07:57.390Z,87.81
2018-12-17T00:08:34.604Z,87.55
2018-12-17T00:09:12.345Z,87.60
2018-12-17T00:09:50.928Z,87.74
2018-12-17T00:10:29.090Z,88.59
2018-12-17T00:11:06.751Z,87.59
2018-12-17T00:11:44.327Z,88.17
2018-12-17T00:12:21.517Z,87.44
2018-12-17T00:12:58.820Z,88.08
2018-12-17T00:13:36.308Z,87.31
2018-12-17T00:14:13.600Z,87.44
2018-12-17T00:14:51.928Z,87.89
2018-12-17T00:15:32.284Z,87.57
2018-12-17T00:16:09.603Z,87.31
2018-12-17T00:16:46.988Z,86.87
2018-12-17T00:17:25.544Z,88.28
2018-12-17T00:18:03.162Z,88.80
2018-12-17T00:18:40.713Z,87.54
2018-12-17T00:19:21.906Z,87.64
2018-12-17T00:20:03.038Z,88.54
2018-12-17T00:20:41.363Z,88.41
2018-12-17T00:21:18.813Z,87.46
2018-12-17T00:21:56.500Z,87.36
2018-12-17T00:22:36.760Z,87.88
2018-12-17T00:23:14.250Z,87.76
2018-12-17T00:23:53.777Z,87.24
2018-12-17T00:24:31.444Z,88.30
2018-12-17T00:25:09.134Z,87.63
2018-12-17T00:25:50.499Z,87.68
2018-12-17T00:26:27.715Z,88.37
2018-12-17T00:27:05.396Z,87.73
2018-12-17T00:27:43.757Z,87.08
2018-12-17T00:28:21.940Z,88.34
2018-12-17T00:29:01.379Z,87.40
2018-12-17T00:29:46.807Z,87.95
2018-12-17T00:30:24.699Z,87.49
2018-12-17T00:31:02.214Z,87.81
2018-12-17T00:31:39.344Z,87.02
2018-12-17T00:32:17.687Z,87.68
2018-12-17T00:32:55.125Z,87.94
2018-12-17T00:33:35.125Z,87.21
2018-12-17T00:34:12.495Z,87.25
2018-12-17T00:34:49.773Z,87.99
2018-12-17T00:35:33.033Z,86.88
2018-12-17T00:36:11.237Z,87.75
2018-12-17T00:36:48.657Z,87.64
2018-12-17T00:37:27.255Z,86.97
2018-12-17T00:38:06.793Z,86.73
2018-12-17T00:38:44.344Z,87.52
2018-12-17T00:39:26.573Z,86.81
2018-12-17T00:40:04.751Z,87.90
2018-12-17T00:40:42.342Z,87.07
2018-12-17T00:41:22.387Z,87.64
2018-12-17T00:42:01.029Z,86.78
2018-12-17T00:42:40.356Z,86.91
2018-12-17T00:43:20.735Z,87.00
2018-12-17T00:44:00.055Z,87.55
2018-12-17T00:44:37.698Z,87.06
2018-12-17T00:45:15.296Z,86.96
2018-12-17T00:45:53.043Z,86.24
2018-12-17T00:46:30.323Z,86.91
2018-12-17T00:47:07.921Z,86.90
2018-12-17T00:47:45.547Z,86.84
2018-12-17T00:48:23.152Z,86.29
2018-12-17T00:49:00.439Z,87.04
2018-12-17T00:49:38.093Z,87.03
2018-12-17T00:50:17.355Z,85.77
2018-12-17T00:50:59.598Z,85.92
2018-12-17T00:51:37.812Z,86.51
2018-12-17T00:52:17.600Z,85.94
2018-12-17T00:52:56.608Z,86.13
2018-12-17T00:53:34.196Z,86.39
2018-12-17T00:54:11.575Z,85.59
2018-12-17T00:54:55.880Z,86.33
2018-12-17T00:55:37.563Z,86.31
2018-12-17T00:56:15.129Z,86.38
2018-12-17T00:56:53.079Z,86.31
2018-12-17T00:57:34.059Z,86.37
2018-12-17T00:58:15.227Z,85.97
2018-12-17T00:58:52.120Z,86.23
2018-12-17T00:59:29.615Z,86.26
2018-12-17T01:00:08.886Z,85.15
2018-12-17T01:00:46.577Z,85.75
2018-12-17T01:01:23.962Z,86.38
2018-12-17T01:02:01.555Z,85.35
2018-12-17T01:02:39.087Z,85.98
2018-12-17T01:03:21.344Z,84.91
2018-12-17T01:03:58.945Z,84.84
2018-12-17T01:04:36.707Z,84.68
2018-12-17T01:05:15.792Z,84.71
2018-12-17T01:05:53.246Z,84.63
2018-12-17T01:06:36.459Z,84.65
2018-12-17T01:07:19.808Z,84.65
2018-12-17T01:08:01.454Z,83.43
2018-12-17T01:08:40.712Z,84.10
2018-12-17T01:09:18.156Z,83.87
2018-12-17T01:09:59.826Z,83.41
2018-12-17T01:10:37.116Z,84.40
2018-12-17T01:11:14.562Z,84.15
2018-12-17T01:11:52.468Z,83.70
2018-12-17T01:12:29.840Z,83.63
2018-12-17T01:13:07.277Z,84.25
2018-12-17T01:13:44.890Z,84.10
2018-12-17T01:14:22.456Z,84.18
2018-12-17T01:14:59.873Z,84.52
2018-12-17T01:15:42.152Z,83.74
2018-12-17T01:16:19.524Z,83.39
2018-12-17T01:16:58.068Z,83.22
2018-12-17T01:17:40.748Z,84.26
2018-12-17T01:18:18.239Z,84.48
2018-12-17T01:18:55.941Z,83.05
2018-12-17T01:19:35.763Z,83.96
2018-12-17T01:23:18.710Z,84.29
2018-12-17T01:23:56.429Z,83.86
2018-12-17T01:24:35.184Z,84.12
2018-12-17T01:25:15.305Z,84.09
2018-12-17T01:25:52.797Z,83.94
2018-12-17T01:26:34.892Z,84.71
2018-12-17T01:27:12.115Z,84.59
2018-12-17T01:27:49.958Z,84.04
2018-12-17T01:28:28.543Z,83.40
2018-12-17T01:29:05.692Z,84.00
2018-12-17T01:29:43.313Z,84.28
2018-12-17T01:30:20.626Z,83.23
2018-12-17T01:30:58.129Z,83.61
2018-12-17T01:31:35.846Z,82.98
2018-12-17T01:32:13.255Z,83.36
2018-12-17T01:32:51.603Z,83.15
2018-12-17T01:33:30.237Z,84.12
2018-12-17T01:34:11.582Z,83.67
2018-12-17T01:34:49.357Z,84.37
2018-12-17T01:35:27.343Z,83.96
2018-12-17T01:36:05.709Z,83.91
2018-12-17T01:36:43.467Z,84.34
2018-12-17T01:37:22.819Z,84.80
2018-12-17T01:38:02.921Z,84.33
2018-12-17T01:38:41.021Z,83.08
2018-12-17T01:39:18.597Z,84.13
2018-12-17T01:40:00.877Z,83.65
2018-12-17T01:40:39.880Z,83.64
2018-12-17T01:41:17.479Z,83.95
2018-12-17T01:41:55.944Z,83.16
2018-12-17T01:42:37.065Z,82.76
2018-12-17T01:43:14.341Z,83.38
2018-12-17T01:43:52.144Z,82.96
2018-12-17T01:44:29.426Z,83.24
2018-12-17T01:45:10.906Z,83.25
2018-12-17T01:45:55.345Z,82.92
2018-12-17T01:46:35.925Z,82.87
2018-12-17T01:47:13.546Z,83.41
2018-12-17T01:47:50.992Z,83.48
2018-12-17T01:48:29.050Z,83.27
2018-12-17T01:49:06.752Z,83.60
2018-12-17T01:49:44.119Z,82.92
2018-12-17T01:50:21.646Z,82.27
2018-12-17T01:50:59.577Z,82.16
2018-12-17T01:51:37.046Z,81.65
2018-12-17T01:52:18.429Z,82.78
2018-12-17T01:52:56.291Z,82.54
2018-12-17T01:53:33.625Z,82.72
2018-12-17T01:54:14.399Z,82.63
2018-12-17T01:54:52.460Z,82.80
2018-12-17T01:55:29.876Z,82.87
2018-12-17T01:56:07.182Z,81.89
2018-12-17T01:56:44.311Z,81.41
2018-12-17T01:57:23.353Z,82.11
2018-12-17T01:58:07.920Z,80.41
2018-12-17T01:58:46.145Z,81.77
2018-12-17T01:59:23.451Z,80.62
2018-12-17T02:00:01.689Z,81.11
2018-12-17T02:00:39.923Z,81.06
2018-12-17T02:01:17.316Z,81.15
2018-12-17T02:01:57.588Z,80.15
2018-12-17T02:02:35.059Z,80.51
2018-12-17T02:03:12.449Z,80.65
2018-12-17T02:03:55.458Z,80.49
2018-12-17T02:04:33.007Z,80.30
2018-12-17T02:05:10.770Z,81.48
2018-12-17T02:05:49.502Z,81.24
2018-12-17T02:06:28.646Z,81.50
2018-12-17T02:07:06.975Z,81.33
2018-12-17T02:07:44.264Z,80.34
2018-12-17T02:08:21.655Z,81.60
2018-12-17T02:09:00.368Z,82.00
2018-12-17T02:09:37.709Z,80.88
2018-12-17T02:10:14.826Z,80.59
2018-12-17T02:10:54.549Z,81.81
2018-12-17T02:11:32.156Z,81.15
2018-12-17T02:12:09.800Z,80.48
2018-12-17T02:12:48.104Z,81.09
2018-12-17T02:13:30.081Z,81.19
2018-12-17T02:14:08.272Z,81.15
2018-12-17T02:14:46.200Z,81.50
2018-12-17T02:15:25.140Z,80.15
2018-12-17T02:16:02.749Z,80.87
2018-12-17T02:16:40.212Z,80.60
2018-12-17T02:17:20.593Z,80.30
2018-12-17T02:17:58.271Z,79.85
2018-12-17T02:18:37.690Z,80.19
2018-12-17T02:19:15.797Z,80.72
2018-12-17T02:19:56.992Z,80.48
2018-12-17T02:20:34.942Z,80.53
2018-12-17T02:21:12.974Z,80.18
2018-12-17T02:21:50.505Z,79.63
2018-12-17T02:22:28.172Z,80.27
2018-12-17T02:23:05.571Z,80.02
2018-12-17T02:23:43.000Z,80.88
2018-12-17T02:24:20.456Z,79.75
2018-12-17T02:24:58.167Z,80.22
2018-12-17T02:25:36.384Z,80.12
2018-12-17T02:26:13.794Z,80.52
2018-12-17T02:26:54.818Z,80.79
2018-12-17T02:27:33.365Z,80.08
2018-12-17T02:28:10.781Z,79.53
2018-12-17T02:28:51.630Z,80.43
2018-12-17T02:29:29.146Z,79.12
2018-12-17T02:30:07.830Z,78.83
2018-12-17T02:30:50.940Z,78.74
2018-12-17T02:31:28.414Z,79.29
2018-12-17T02:32:05.925Z,79.40
2018-12-17T02:32:43.173Z,79.57
2018-12-17T02:33:20.659Z,79.08
2018-12-17T02:34:02.273Z,79.43
2018-12-17T02:34:39.757Z,79.00
2018-12-17T02:35:17.462Z,79.61
2018-12-17T02:36:39.097Z,78.89
2018-12-17T02:37:20.458Z,78.76
2018-12-17T02:38:00.445Z,79.39
2018-12-17T02:38:39.976Z,79.46
2018-12-17T02:39:18.573Z,78.85
2018-12-17T02:39:57.666Z,78.36
2018-12-17T02:40:38.178Z,77.59
2018-12-17T02:41:16.931Z,78.55
2018-12-17T02:41:55.112Z,77.58
2018-12-17T02:42:33.542Z,77.98
2018-12-17T02:43:12.138Z,77.83
2018-12-17T02:43:49.966Z,79.05
2018-12-17T02:44:29.779Z,78.09
2018-12-17T02:45:07.266Z,79.06
2018-12-17T02:45:44.601Z,78.58
2018-12-17T02:46:26.901Z,78.35
2018-12-17T02:47:04.961Z,78.68
2018-12-17T02:47:48.606Z,78.26
2018-12-17T02:48:26.273Z,78.85
2018-12-17T02:49:07.371Z,78.81
2018-12-17T02:49:44.874Z,78.83
2018-12-17T02:50:22.293Z,79.09
2018-12-17T02:51:01.579Z,77.80
2018-12-17T02:51:39.662Z,78.54
2018-12-17T02:52:17.046Z,78.46
2018-12-17T02:52:54.563Z,78.22
2018-12-17T02:53:31.995Z,77.42
2018-12-17T02:54:09.532Z,78.76
2018-12-17T02:54:46.957Z,77.86
2018-12-17T02:55:24.594Z,77.35
2018-12-17T02:56:02.026Z,77.46
2018-12-17T02:56:39.314Z,77.23
2018-12-17T02:57:16.944Z,76.93
2018-12-17T02:57:54.406Z,76.94
2018-12-17T02:58:34.397Z,76.07
2018-12-17T02:59:12.803Z,76.02
2018-12-17T02:59:50.179Z,75.52
2018-12-17T03:00:27.840Z,75.81
2018-12-17T03:01:05.249Z,75.54
2018-12-17T03:01:42.968Z,75.29
2018-12-17T03:02:20.985Z,75.02
2018-12-17T03:03:03.777Z,75.00
2018-12-17T03:03:41.200Z,74.76
2018-12-17T03:04:18.604Z,75.04
2018-12-17T03:04:59.000Z,74.42
2018-12-17T03:05:36.645Z,74.79
2018-12-17T03:06:13.751Z,73.67
2018-12-17T03:06:55.160Z,74.05
2018-12-17T03:07:32.985Z,73.68
2018-12-17T03:08:10.411Z,73.88
2018-12-17T03:08:54.986Z,74.28
2018-12-17T03:09:33.142Z,74.28
2018-12-17T03:10:10.875Z,73.38
2018-12-17T03:10:49.190Z,74.10
2018-12-17T03:11:26.489Z,73.21
2018-12-17T03:12:04.390Z,73.38
2018-12-17T03:12:41.955Z,72.99
2018-12-17T03:13:19.412Z,73.39
2018-12-17T03:13:57.171Z,73.88
2018-12-17T03:14:34.577Z,73.94
2018-12-17T03:15:11.839Z,73.99
2018-12-17T03:15:49.465Z,73.43
2018-12-17T03:16:27.073Z,72.67
2018-12-17T03:17:04.077Z,72.94
2018-12-17T03:17:48.603Z,73.48
2018-12-17T03:18:31.373Z,73.28
2018-12-17T03:19:24.174Z,73.17
2018-12-17T03:20:10.225Z,74.00
2018-12-17T03:20:48.191Z,73.51
2018-12-17T03:21:25.714Z,73.63
2018-12-17T03:22:06.653Z,73.54
2018-12-17T03:22:43.995Z,73.65
2018-12-17T03:23:21.482Z,73.26
2018-12-17T03:24:01.493Z,72.95
2018-12-17T03:24:38.871Z,72.49
2018-12-17T03:25:16.241Z,72.39
2018-12-17T03:25:54.866Z,72.19
2018-12-17T03:26:32.163Z,72.20
2018-12-17T03:27:09.858Z,71.36
2018-12-17T03:27:47.694Z,71.41
2018-12-17T03:28:25.102Z,71.38
2018-12-17T03:29:02.545Z,72.13
2018-12-17T03:29:45.799Z,71.89
2018-12-17T03:30:23.129Z,71.96
2018-12-17T03:31:00.302Z,71.58
2018-12-17T03:31:39.914Z,71.49
2018-12-17T03:32:16.841Z,71.34
2018-12-17T03:32:54.518Z,71.18
2018-12-17T03:33:36.102Z,71.30
2018-12-17T03:34:14.538Z,71.50
2018-12-17T03:34:52.237Z,71.44
2018-12-17T03:35:33.629Z,70.81
2018-12-17T03:36:10.966Z,70.52
2018-12-17T03:36:48.490Z,70.53
2018-12-17T03:37:27.485Z,69.93
2018-12-17T03:38:05.135Z,70.55
2018-12-17T03:38:42.628Z,70.61
2018-12-17T03:39:19.867Z,71.07
2018-12-17T03:39:57.813Z,70.85
2018-12-17T03:40:35.558Z,71.05
2018-12-17T03:42:07.899Z,71.26
2018-12-17T03:42:45.257Z,71.26
2018-12-17T03:43:23.585Z,70.71
2018-12-17T03:44:01.730Z,71.01
2018-12-17T03:44:39.206Z,70.44
2018-12-17T03:45:16.859Z,70.58
2018-12-17T03:45:54.759Z,70.54
2018-12-17T03:46:32.099Z,70.97
2018-12-17T03:47:09.526Z,70.73
2018-12-17T03:47:50.170Z,70.63
2018-12-17T03:48:27.809Z,71.18
2018-12-17T03:49:05.305Z,70.96
2018-12-17T03:49:47.687Z,71.24
2018-12-17T03:50:24.827Z,71.26
2018-12-17T03:51:02.853Z,71.67
2018-12-17T03:51:47.974Z,71.61
2018-12-17T03:52:25.457Z,71.71
2018-12-17T03:53:03.769Z,71.92
2018-12-17T03:53:42.014Z,71.55
2018-12-17T03:54:20.982Z,70.59
2018-12-17T03:54:57.998Z,70.38
2018-12-17T03:55:35.221Z,69.60
2018-12-17T03:56:12.506Z,69.85
2018-12-17T03:56:49.864Z,69.36
2018-12-17T03:57:27.446Z,69.64
2018-12-17T03:58:05.956Z,69.60
2018-12-17T03:58:42.993Z,69.66
2018-12-17T03:59:20.283Z,69.47
2018-12-17T03:59:58.190Z,68.66
2018-12-17T04:00:35.818Z,68.95
2018-12-17T04:01:14.287Z,69.91
2018-12-17T04:01:51.959Z,70.10
2018-12-17T04:02:29.760Z,70.39
2018-12-17T04:03:08.418Z,70.99
2018-12-17T04:03:51.654Z,71.36
2018-12-17T04:04:29.171Z,70.61
2018-12-17T04:05:06.682Z,70.82
2018-12-17T04:05:48.284Z,70.92
2018-12-17T04:06:27.699Z,70.97
2018-12-17T04:07:05.208Z,71.15
2018-12-17T04:07:51.067Z,71.30
2018-12-17T04:08:34.112Z,71.25
2018-12-17T04:09:11.542Z,71.40
2018-12-17T04:09:49.300Z,71.97
2018-12-17T04:10:28.181Z,71.28
2018-12-17T04:11:05.924Z,71.17
2018-12-17T04:11:43.376Z,71.13
2018-12-17T04:12:21.136Z,70.96
2018-12-17T04:13:03.948Z,70.92
2018-12-17T04:13:41.668Z,71.12
2018-12-17T04:14:19.145Z,71.31
2018-12-17T04:14:56.921Z,71.13
2018-12-17T04:15:35.774Z,71.18
2018-12-17T04:16:12.925Z,71.09
2018-12-17T04:16:50.277Z,70.99
2018-12-17T04:17:28.726Z,70.99
2018-12-17T04:18:07.446Z,71.36
2018-12-17T04:18:46.060Z,71.58
2018-12-17T04:19:23.566Z,70.35
2018-12-17T04:20:02.727Z,71.57
2018-12-17T04:20:40.182Z,71.58
2018-12-17T04:21:17.386Z,71.06
2018-12-17T04:21:54.870Z,71.87
2018-12-17T04:22:32.630Z,71.43
2018-12-17T04:23:09.621Z,70.66
2018-12-17T04:23:47.268Z,71.22
2018-12-17T04:24:25.593Z,71.26
2018-12-17T04:25:02.925Z,71.48
2018-12-17T04:25:40.318Z,71.56
2018-12-17T04:26:17.614Z,71.74
2018-12-17T04:26:55.298Z,72.13
2018-12-17T04:27:32.968Z,71.90
2018-12-17T04:28:14.819Z,71.36
2018-12-17T04:28:52.419Z,71.98
2018-12-17T04:29:29.717Z,72.08
2018-12-17T04:30:11.679Z,71.51
2018-12-17T04:30:49.214Z,71.21
2018-12-17T04:31:27.630Z,71.05
2018-12-17T04:32:05.361Z,71.75
2018-12-17T04:32:42.910Z,71.16
2018-12-17T04:33:20.305Z,71.24
2018-12-17T04:33:57.432Z,70.97
2018-12-17T04:34:34.962Z,71.10
2018-12-17T04:35:12.362Z,71.25
2018-12-17T04:35:51.394Z,71.25
2018-12-17T04:36:29.326Z,71.82
2018-12-17T04:37:06.881Z,71.97
2018-12-17T04:37:50.229Z,71.40
2018-12-17T04:38:28.049Z,70.76
2018-12-17T04:39:06.955Z,70.87
2018-12-17T04:39:45.606Z,71.20
2018-12-17T04:40:24.960Z,70.90
2018-12-17T04:41:02.655Z,70.88
2018-12-17T04:41:40.401Z,70.90
2018-12-17T04:42:18.030Z,71.11
2018-12-17T04:42:56.029Z,71.30
2018-12-17T04:43:36.359Z,71.24
2018-12-17T04:44:14.395Z,71.69
2018-12-17T04:44:52.162Z,71.53
2018-12-17T04:45:33.049Z,71.72
2018-12-17T04:46:11.190Z,71.18
2018-12-17T04:46:48.587Z,70.87
2018-12-17T04:47:27.081Z,71.35
2018-12-17T04:48:04.300Z,71.49
2018-12-17T04:48:43.031Z,70.78
2018-12-17T04:49:20.579Z,71.07
2018-12-17T04:49:58.373Z,71.50
2018-12-17T04:50:35.967Z,71.30
2018-12-17T04:51:15.623Z,71.04
2018-12-17T04:51:53.290Z,71.11
2018-12-17T04:52:31.715Z,70.77
2018-12-17T04:53:09.453Z,71.13
2018-12-17T04:53:46.792Z,71.42
2018-12-17T04:54:28.127Z,71.21
2018-12-17T04:55:06.619Z,71.10
2018-12-17T04:55:44.112Z,71.19
2018-12-17T04:56:21.590Z,71.65
2018-12-17T04:56:59.248Z,71.36
2018-12-17T04:57:36.695Z,71.73
2018-12-17T04:58:18.472Z,72.08
2018-12-17T04:58:56.133Z,72.17
2018-12-17T04:59:33.490Z,72.18
2018-12-17T05:00:12.426Z,72.41
2018-12-17T05:00:50.017Z,72.13
2018-12-17T05:01:29.525Z,72.37
2018-12-17T05:02:09.793Z,72.54
2018-12-17T05:02:47.441Z,72.20
2018-12-17T05:03:24.538Z,72.44
2018-12-17T05:04:05.059Z,72.37
2018-12-17T05:04:42.429Z,72.48
2018-12-17T05:05:19.994Z,72.87
2018-12-17T05:05:57.216Z,72.18
2018-12-17T05:06:34.707Z,72.46
2018-12-17T05:07:12.397Z,72.99
2018-12-17T05:07:49.954Z,72.35
2018-12-17T05:08:31.743Z,71.79
2018-12-17T05:09:10.913Z,72.34
2018-12-17T05:09:48.303Z,72.73
2018-12-17T05:10:25.821Z,72.27
2018-12-17T05:11:03.545Z,72.27
2018-12-17T05:11:43.554Z,71.85
2018-12-17T05:12:22.897Z,71.54
2018-12-17T05:13:00.057Z,71.65
2018-12-17T05:13:38.708Z,71.57
2018-12-17T05:14:20.978Z,71.53
2018-12-17T05:14:58.630Z,71.71
2018-12-17T05:15:36.001Z,71.50
2018-12-17T05:16:14.888Z,71.92
2018-12-17T05:16:52.371Z,72.47
2018-12-17T05:17:29.558Z,71.93
2018-12-17T05:18:08.270Z,71.93
2018-12-17T05:18:46.619Z,72.16
2018-12-17T05:19:23.699Z,72.16
2018-12-17T05:20:01.832Z,72.23
2018-12-17T05:20:39.421Z,72.24
2018-12-17T05:21:16.847Z,72.27
2018-12-17T05:21:54.631Z,72.21
2018-12-17T05:22:34.811Z,72.62
2018-12-17T05:23:12.300Z,72.31
2018-12-17T05:23:49.686Z,72.25
2018-12-17T05:24:29.326Z,73.07
2018-12-17T05:25:07.058Z,72.72
2018-12-17T05:25:44.377Z,72.85
2018-12-17T05:26:23.560Z,72.97
2018-12-17T05:27:01.421Z,73.11
2018-12-17T05:27:38.868Z,72.77
2018-12-17T05:28:18.403Z,72.40
2018-12-17T05:28:55.873Z,72.53
2018-12-17T05:29:33.372Z,72.74
2018-12-17T05:30:11.674Z,72.73
2018-12-17T05:30:49.310Z,72.99
2018-12-17T05:31:26.735Z,73.35
2018-12-17T05:32:04.008Z,72.80
2018-12-17T05:32:41.329Z,73.09
2018-12-17T05:33:18.595Z,73.23
2018-12-17T05:33:58.582Z,73.17
2018-12-17T05:34:36.075Z,73.39
2018-12-17T05:35:14.444Z,73.42
2018-12-17T05:35:52.007Z,73.48
2018-12-17T05:36:29.910Z,73.21
2018-12-17T05:37:07.646Z,72.82
2018-12-17T05:37:52.719Z,73.40
2018-12-17T05:38:29.843Z,73.22
2018-12-17T05:39:08.601Z,73.13
2018-12-17T05:39:50.791Z,72.52
2018-12-17T05:40:28.320Z,72.86
2018-12-17T05:41:05.253Z,72.72
2018-12-17T05:41:44.777Z,73.08
2018-12-17T05:42:22.238Z,73.37
2018-12-17T05:43:00.587Z,73.02
2018-12-17T05:43:38.582Z,73.26
2018-12-17T05:44:16.002Z,72.92
2018-12-17T05:44:53.457Z,73.84
2018-12-17T05:45:36.986Z,73.86
2018-12-17T05:46:15.518Z,73.57
2018-12-17T05:46:53.477Z,73.41
2018-12-17T05:47:32.114Z,73.71
2018-12-17T05:48:14.474Z,73.89
2018-12-17T05:48:52.122Z,73.90
2018-12-17T05:49:34.172Z,73.58
2018-12-17T05:50:11.688Z,73.04
2018-12-17T05:50:49.131Z,73.08
2018-12-17T05:51:27.987Z,73.25
2018-12-17T05:52:05.377Z,73.58
2018-12-17T05:52:43.670Z,73.48
2018-12-17T05:53:21.474Z,73.48
2018-12-17T05:53:59.702Z,73.19
2018-12-17T05:54:37.142Z,73.52
2018-12-17T05:55:18.221Z,72.94
2018-12-17T05:55:56.462Z,73.27
2018-12-17T05:56:40.065Z,74.23
2018-12-17T05:57:18.980Z,73.77
2018-12-17T05:58:00.829Z,73.77
2018-12-17T05:58:38.271Z,74.02
2018-12-17T05:59:15.870Z,73.69
2018-12-17T05:59:55.558Z,74.07
2018-12-17T06:00:33.666Z,74.19
2018-12-17T06:01:11.368Z,74.08
2018-12-17T06:01:49.390Z,73.97
2018-12-17T06:02:26.867Z,74.85
2018-12-17T06:03:04.521Z,74.43
2018-12-17T06:03:46.682Z,74.37
2018-12-17T06:04:24.477Z,74.55
2018-12-17T06:05:02.012Z,74.41
2018-12-17T06:05:44.037Z,74.43
2018-12-17T06:06:23.726Z,73.76
2018-12-17T06:07:02.534Z,73.95
2018-12-17T06:07:40.213Z,73.68
2018-12-17T06:08:19.913Z,74.69
2018-12-17T06:08:57.480Z,74.28
2018-12-17T06:09:35.163Z,74.07
2018-12-17T06:10:13.368Z,74.28
2018-12-17T06:10:52.250Z,74.50
2018-12-17T06:11:31.640Z,74.66
2018-12-17T06:12:09.246Z,74.29
2018-12-17T06:12:46.702Z,74.68
2018-12-17T06:13:24.010Z,75.29
2018-12-17T06:14:01.361Z,74.56
2018-12-17T06:14:38.940Z,74.87
2018-12-17T06:15:16.549Z,74.71
2018-12-17T06:15:55.138Z,74.95
2018-12-17T06:16:32.691Z,74.97
2018-12-17T06:17:10.400Z,75.13
2018-12-17T06:17:49.910Z,74.71
2018-12-17T06:18:33.907Z,74.47
2018-12-17T06:19:11.382Z,74.10
2018-12-17T06:19:52.845Z,73.98
2018-12-17T06:20:31.056Z,73.82
2018-12-17T06:21:08.947Z,73.23
2018-12-17T06:21:46.460Z,73.61
2018-12-17T06:22:25.104Z,73.78
2018-12-17T06:23:02.816Z,74.12
2018-12-17T06:23:40.734Z,74.17
2018-12-17T06:24:18.120Z,74.65
2018-12-17T06:24:57.174Z,74.54
2018-12-17T06:25:35.020Z,74.80
2018-12-17T06:26:12.442Z,74.68
2018-12-17T06:26:53.090Z,74.76
2018-12-17T06:27:36.606Z,74.51
2018-12-17T06:28:10.673Z,74.46
2018-12-17T06:28:48.463Z,74.59
2018-12-17T06:29:25.855Z,74.45
2018-12-17T06:30:03.209Z,74.28
2018-12-17T06:30:41.762Z,74.27
2018-12-17T06:31:19.251Z,74.00
2018-12-17T06:32:06.895Z,74.07
2018-12-17T06:32:47.811Z,74.07
2018-12-17T06:33:25.507Z,74.28
2018-12-17T06:34:03.810Z,74.10
2018-12-17T06:34:42.866Z,74.16
2018-12-17T06:35:20.201Z,74.19
2018-12-17T06:35:58.065Z,74.73
2018-12-17T06:36:35.290Z,74.36
2018-12-17T06:37:12.994Z,74.30
2018-12-17T06:37:50.763Z,74.00
2018-12-17T06:38:28.205Z,74.16
2018-12-17T06:39:06.834Z,74.15
2018-12-17T06:39:44.070Z,73.74
2018-12-17T06:40:21.645Z,74.06
2018-12-17T06:41:01.251Z,74.12
2018-12-17T06:41:39.003Z,74.03
2018-12-17T06:42:16.334Z,74.04
2018-12-17T06:42:53.943Z,74.12
2018-12-17T06:43:32.397Z,74.64
2018-12-17T06:44:11.261Z,74.41
2018-12-17T06:44:54.707Z,74.41
2018-12-17T06:45:32.153Z,74.35
2018-12-17T06:46:09.624Z,74.79
2018-12-17T06:46:50.409Z,74.84
2018-12-17T06:47:27.873Z,75.27
2018-12-17T06:48:05.062Z,75.78
2018-12-17T06:48:42.783Z,75.36
2018-12-17T06:49:23.830Z,75.20
2018-12-17T06:50:01.399Z,75.31
2018-12-17T06:50:38.791Z,75.15
2018-12-17T06:51:15.862Z,74.60
2018-12-17T06:51:54.549Z,75.54
2018-12-17T06:52:35.466Z,75.26
2018-12-17T06:53:12.828Z,75.32
2018-12-17T06:53:50.359Z,75.53
2018-12-17T06:54:30.476Z,75.57
2018-12-17T06:55:08.211Z,74.69
2018-12-17T06:55:45.584Z,75.34
2018-12-17T06:56:24.611Z,75.37
2018-12-17T06:57:01.804Z,74.94
2018-12-17T06:57:40.184Z,75.12
2018-12-17T06:58:17.943Z,74.58
2018-12-17T06:58:55.229Z,74.03
2018-12-17T06:59:33.714Z,73.54
2018-12-17T07:00:11.606Z,73.35
2018-12-17T07:00:49.292Z,73.51
2018-12-17T07:01:28.104Z,73.56
2018-12-17T07:02:08.081Z,73.38
2018-12-17T07:02:45.561Z,73.39
2018-12-17T07:03:23.343Z,73.22
2018-12-17T07:04:01.091Z,73.24
2018-12-17T07:04:38.853Z,73.08
2018-12-17T07:05:16.491Z,73.41
2018-12-17T07:05:54.165Z,73.24
2018-12-17T07:06:31.593Z,73.66
2018-12-17T07:07:10.021Z,73.34
2018-12-17T07:07:47.320Z,73.06
2018-12-17T07:08:30.240Z,72.96
2018-12-17T07:09:08.830Z,73.20
2018-12-17T07:09:46.444Z,73.38
2018-12-17T07:10:24.960Z,73.56
2018-12-17T07:11:03.210Z,73.69
2018-12-17T07:11:41.653Z,73.86
2018-12-17T07:12:19.300Z,73.50
2018-12-17T07:12:57.530Z,73.35
2018-12-17T07:13:34.909Z,73.67
2018-12-17T07:14:12.469Z,73.63
2018-12-17T07:14:50.751Z,73.88
2018-12-17T07:15:28.486Z,73.71
2018-12-17T07:16:05.889Z,72.93
2018-12-17T07:16:43.212Z,72.86
2018-12-17T07:17:20.815Z,72.29
2018-12-17T07:17:59.357Z,71.97
2018-12-17T07:18:36.276Z,71.91
2018-12-17T07:19:13.443Z,71.73
2018-12-17T07:19:51.580Z,71.79
2018-12-17T07:20:28.769Z,72.05
2018-12-17T07:21:06.281Z,72.35
2018-12-17T07:21:53.361Z,72.52
2018-12-17T07:22:34.248Z,72.29
2018-12-17T07:23:11.792Z,71.96
2018-12-17T07:23:49.191Z,71.83
2018-12-17T07:24:29.482Z,71.70
2018-12-17T07:25:06.987Z,71.76
2018-12-17T07:25:44.438Z,71.53
2018-12-17T07:26:24.633Z,72.03
2018-12-17T07:27:02.043Z,72.15
2018-12-17T07:27:39.786Z,72.25
2018-12-17T07:28:21.614Z,72.89
2018-12-17T07:28:59.610Z,72.27
2018-12-17T07:29:36.892Z,72.43
2018-12-17T07:30:13.891Z,72.05
2018-12-17T07:30:51.351Z,71.84
2018-12-17T07:31:28.815Z,71.62
2018-12-17T07:32:05.775Z,71.50
2018-12-17T07:32:43.049Z,71.25
2018-12-17T07:33:20.432Z,71.10
2018-12-17T07:33:57.558Z,71.44
2018-12-17T07:34:34.983Z,71.62
2018-12-17T07:35:12.204Z,71.42
2018-12-17T07:35:50.530Z,71.29
2018-12-17T07:36:28.544Z,71.51
2018-12-17T07:37:05.809Z,71.68
2018-12-17T07:37:43.055Z,71.63
2018-12-17T07:38:20.166Z,71.21
2018-12-17T07:39:00.766Z,71.02
2018-12-17T07:39:46.717Z,71.10
2018-12-17T07:40:29.454Z,71.54
2018-12-17T07:41:07.150Z,71.84
2018-12-17T07:41:46.132Z,72.06
2018-12-17T07:42:24.853Z,71.75
2018-12-17T07:43:02.222Z,71.86
2018-12-17T07:43:45.624Z,71.97
2018-12-17T07:44:28.448Z,71.76
2018-12-17T07:45:05.991Z,71.56
2018-12-17T07:45:43.634Z,71.39
2018-12-17T07:46:32.705Z,72.01
2018-12-17T07:47:20.492Z,72.28
2018-12-17T07:48:05.740Z,71.99
2018-12-17T07:48:43.359Z,72.01
2018-12-17T07:49:20.453Z,71.80
2018-12-17T07:49:57.814Z,71.67
2018-12-17T07:50:35.391Z,71.29
2018-12-17T07:51:12.739Z,71.46
2018-12-17T07:51:51.080Z,71.32
2018-12-17T07:52:29.838Z,71.59
2018-12-17T07:53:07.377Z,71.62
2018-12-17T07:53:47.716Z,71.68
2018-12-17T07:54:30.091Z,71.85
2018-12-17T07:55:12.313Z,71.32
2018-12-17T07:56:00.748Z,71.72
2018-12-17T07:56:38.579Z,71.79
2018-12-17T07:57:17.044Z,71.95
2018-12-17T07:57:54.994Z,72.34
2018-12-17T07:58:33.261Z,72.18
2018-12-17T07:59:11.306Z,72.44
2018-12-17T07:59:56.920Z,72.39
2018-12-17T08:00:39.107Z,72.25
2018-12-17T08:01:18.738Z,72.28
2018-12-17T08:01:56.114Z,71.76
2018-12-17T08:02:38.235Z,71.56
2018-12-17T08:03:15.645Z,71.05
2018-12-17T08:03:53.100Z,70.59
2018-12-17T08:04:31.659Z,69.73
2018-12-17T08:05:10.579Z,69.36
2018-12-17T08:05:48.295Z,69.54
2018-12-17T08:06:26.755Z,69.70
2018-12-17T08:07:06.617Z,69.60
2018-12-17T08:07:44.317Z,70.07
2018-12-17T08:08:21.816Z,69.92
2018-12-17T08:09:00.106Z,69.58
2018-12-17T08:09:37.868Z,69.33
2018-12-17T08:10:17.191Z,69.04
2018-12-17T08:10:54.495Z,68.13
2018-12-17T08:11:31.516Z,67.56
2018-12-17T08:12:09.056Z,67.24
2018-12-17T08:12:48.802Z,67.21
2018-12-17T08:13:26.885Z,67.25
2018-12-17T08:14:04.081Z,67.50
2018-12-17T08:14:41.986Z,67.81
2018-12-17T08:15:19.449Z,67.74
2018-12-17T08:16:02.436Z,67.79
2018-12-17T08:16:46.025Z,67.94
2018-12-17T08:17:25.917Z,67.74
2018-12-17T08:18:12.623Z,68.22
2018-12-17T08:18:50.351Z,68.20
2018-12-17T08:19:29.049Z,68.11
2018-12-17T08:20:07.033Z,68.33
2018-12-17T08:20:45.337Z,68.11
2018-12-17T08:21:22.856Z,68.18
2018-12-17T08:22:00.635Z,68.39